Time;durP1;ratioP1;P1;durP2;ratioP2;P2;SDS_P1;SDS_P2;PMS_P1;PMS_P2;Temp;Humidity;BMP_temperature;BMP_pressure;BME280_temperature;BME280_humidity;BME280_pressure;Samples;Min_cycle;Max_cycle;Signal;HPM_P1;HPM_P2
2022/01/08 00:00:27;;;;;;;14.77;9.95;;;;;;;0.86;100.00;100232.47;5039366;28;20061;-62
2022/01/08 00:02:55;;;;;;;10.10;8.40;;;;;;;0.83;100.00;100235.13;5039674;28;20501;-62
2022/01/08 00:05:22;;;;;;;14.57;9.80;;;;;;;0.83;100.00;100235.13;5042186;28;20079;-61
2022/01/08 00:07:49;;;;;;;12.18;9.50;;;;;;;0.85;100.00;100232.47;5021151;28;20053;-60
2022/01/08 00:10:16;;;;;;;12.57;9.38;;;;;;;0.78;100.00;100224.03;5032084;28;20056;-61
2022/01/08 00:12:44;;;;;;;12.52;9.10;;;;;;;0.90;100.00;100230.63;5020225;28;20049;-61
2022/01/08 00:15:11;;;;;;;11.57;8.68;;;;;;;0.82;100.00;100223.06;5031549;28;20051;-61
2022/01/08 00:17:38;;;;;;;14.13;9.65;;;;;;;0.82;100.00;100225.66;5041665;28;20055;-59
2022/01/08 00:20:06;;;;;;;13.90;9.45;;;;;;;0.79;100.00;100219.69;5033710;28;20049;-60
2022/01/08 00:22:33;;;;;;;13.50;9.88;;;;;;;0.70;100.00;100220.78;5041748;28;20140;-60
2022/01/08 00:25:01;;;;;;;13.13;10.50;;;;;;;0.68;100.00;100214.78;5041303;28;20131;-60
2022/01/08 00:27:28;;;;;;;14.63;10.20;;;;;;;0.57;100.00;100220.22;5030143;28;20058;-61
2022/01/08 00:29:55;;;;;;;13.85;10.27;;;;;;;0.62;100.00;100220.94;5028292;28;20052;-60
2022/01/08 00:32:22;;;;;;;14.60;10.95;;;;;;;0.57;100.00;100204.69;5044683;28;20212;-60
2022/01/08 00:34:49;;;;;;;13.90;11.32;;;;;;;0.44;100.00;100211.88;5041491;28;20132;-60
2022/01/08 00:37:17;;;;;;;18.45;11.68;;;;;;;0.42;100.00;100211.09;5043611;28;20115;-59
2022/01/08 00:39:44;;;;;;;13.95;9.93;;;;;;;0.48;100.00;100216.09;5040701;28;20048;-60
2022/01/08 00:42:11;;;;;;;17.67;11.30;;;;;;;0.42;100.00;100218.84;5042115;28;20100;-60
2022/01/08 00:44:38;;;;;;;15.32;12.20;;;;;;;0.36;100.00;100216.44;5039603;28;20045;-59
2022/01/08 00:47:06;;;;;;;16.30;12.05;;;;;;;0.36;100.00;100219.00;5037432;28;20603;-58
2022/01/08 00:49:33;;;;;;;15.45;11.23;;;;;;;0.38;100.00;100212.03;5035408;28;20072;-59
2022/01/08 00:52:01;;;;;;;19.00;12.80;;;;;;;0.32;100.00;100216.53;5022647;28;20045;-60
2022/01/08 00:54:28;;;;;;;15.85;13.05;;;;;;;0.33;100.00;100213.06;5019133;28;20140;-58
2022/01/08 00:56:57;;;;;;;18.65;12.80;;;;;;;0.29;100.00;100214.00;5043425;28;20136;-61
2022/01/08 00:59:24;;;;;;;15.85;13.30;;;;;;;0.21;100.00;100214.19;5042669;28;20087;-60
2022/01/08 01:01:51;;;;;;;16.02;12.57;;;;;;;0.29;100.00;100216.59;5048197;28;20045;-60
2022/01/08 01:04:18;;;;;;;15.07;12.60;;;;;;;0.34;100.00;100213.00;5035477;28;21117;-61
2022/01/08 01:06:45;;;;;;;17.17;12.73;;;;;;;0.30;100.00;100220.88;5038046;28;20401;-59
2022/01/08 01:09:13;;;;;;;16.45;13.15;;;;;;;0.29;100.00;100217.44;5020380;28;20052;-60
2022/01/08 01:11:40;;;;;;;16.85;13.02;;;;;;;0.32;100.00;100207.03;5045476;28;20096;-60
2022/01/08 01:14:07;;;;;;;16.27;12.85;;;;;;;0.42;100.00;100194.72;5041887;28;20049;-60
2022/01/08 01:16:34;;;;;;;17.00;13.02;;;;;;;0.40;100.00;100197.31;5043235;28;20044;-61
2022/01/08 01:19:03;;;;;;;17.92;12.75;;;;;;;0.40;100.00;100193.88;5038780;28;20054;-59
2022/01/08 01:21:31;;;;;;;15.50;12.27;;;;;;;0.38;100.00;100190.47;5037759;28;20068;-58
2022/01/08 01:24:00;;;;;;;16.73;13.07;;;;;;;0.40;100.00;100193.88;5037024;28;20626;-61
2022/01/08 01:26:29;;;;;;;16.63;13.70;;;;;;;0.38;100.00;100196.50;5033810;28;20045;-60
2022/01/08 01:29:40;;;;;;;16.52;13.27;;;;;;;0.47;100.00;100193.69;5034838;28;20409;-58
2022/01/08 01:43:24;;;;;;;17.20;12.77;;;;;;;0.50;100.00;100178.09;5038419;28;20066;-61
2022/01/08 01:48:36;;;;;;;17.98;13.00;;;;;;;0.61;100.00;100176.97;5034086;28;20123;-61
2022/01/08 01:51:04;;;;;;;17.60;11.90;;;;;;;0.58;100.00;100177.03;5022370;28;20053;-62
2022/01/08 01:53:31;;;;;;;16.70;12.52;;;;;;;0.59;100.00;100178.75;5032688;28;20139;-62
2022/01/08 01:55:58;;;;;;;17.85;12.52;;;;;;;0.48;100.00;100177.25;5034124;28;20059;-61
2022/01/08 01:58:25;;;;;;;15.68;12.02;;;;;;;0.45;100.00;100161.81;5035414;28;20053;-57
2022/01/08 02:00:52;;;;;;;20.05;14.18;;;;;;;0.38;100.00;100160.25;5040598;28;20393;-61
2022/01/08 02:03:19;;;;;;;16.27;12.05;;;;;;;0.41;100.00;100155.00;5032420;28;20071;-61
2022/01/08 02:05:47;;;;;;;16.30;12.95;;;;;;;0.43;100.00;100163.59;5031204;28;20060;-61
2022/01/08 02:08:14;;;;;;;15.10;11.75;;;;;;;0.44;100.00;100159.25;5037158;28;20041;-60
2022/01/08 02:10:41;;;;;;;16.42;12.10;;;;;;;0.46;100.00;100158.34;5035967;28;20597;-59
2022/01/08 02:13:08;;;;;;;16.73;12.95;;;;;;;0.49;100.00;100152.22;5023674;28;20048;-62
2022/01/08 02:15:36;;;;;;;17.15;12.40;;;;;;;0.49;100.00;100141.84;5031971;28;20057;-61
2022/01/08 02:18:04;;;;;;;17.40;11.35;;;;;;;0.50;100.00;100148.75;5036287;28;20136;-59
2022/01/08 02:20:32;;;;;;;16.92;12.57;;;;;;;0.54;100.00;100152.09;5031559;28;20135;-61
2022/01/08 02:22:59;;;;;;;14.10;11.88;;;;;;;0.57;100.00;100152.88;5041356;28;20112;-60
2022/01/08 02:25:26;;;;;;;16.40;11.93;;;;;;;0.64;100.00;100151.00;5029423;28;20049;-61
2022/01/08 02:27:53;;;;;;;21.58;12.68;;;;;;;0.60;100.00;100155.41;5040078;28;20131;-61
2022/01/08 02:30:20;;;;;;;16.92;12.52;;;;;;;0.63;100.00;100150.16;5034647;28;20053;-61
2022/01/08 02:32:47;;;;;;;14.00;11.52;;;;;;;0.60;100.00;100149.38;5039249;28;20148;-59
2022/01/08 02:35:16;;;;;;;16.50;12.38;;;;;;;0.62;100.00;100139.81;5015033;28;20057;-58
2022/01/08 02:37:43;;;;;;;16.10;12.65;;;;;;;0.62;100.00;100166.56;5037582;28;20119;-61
2022/01/08 02:40:11;;;;;;;15.95;12.73;;;;;;;0.67;100.00;100154.34;5043535;28;20132;-60
2022/01/08 02:42:49;;;;;;;14.77;12.77;;;;;;;0.66;100.00;100147.47;5048945;28;20215;-60
2022/01/08 02:45:17;;;;;;;16.73;12.52;;;;;;;0.65;100.00;100150.94;5031563;28;20132;-61
2022/01/08 02:47:44;;;;;;;16.75;12.38;;;;;;;0.69;100.00;100141.34;5033734;28;20054;-61
2022/01/08 02:50:12;;;;;;;16.05;12.63;;;;;;;0.75;100.00;100155.00;5035650;28;20064;-62
2022/01/08 02:52:41;;;;;;;15.48;11.70;;;;;;;0.75;100.00;100149.81;5048313;28;20049;-59
2022/01/08 02:55:09;;;;;;;15.75;12.15;;;;;;;0.75;100.00;100148.97;5037116;28;20055;-58
2022/01/08 02:57:39;;;;;;;16.55;12.55;;;;;;;0.78;100.00;100153.22;5055855;22;20061;31
2022/01/08 03:00:08;;;;;;;17.67;12.77;;;;;;;0.76;100.00;100142.88;4995445;28;20046;-65
2022/01/08 03:02:44;;;;;;;18.65;13.00;;;;;;;0.82;100.00;100147.91;4990979;28;20141;-63
2022/01/08 03:05:12;;;;;;;18.17;12.35;;;;;;;0.80;100.00;100141.91;4995984;28;20073;-63
2022/01/08 03:07:41;;;;;;;16.17;12.02;;;;;;;0.79;100.00;100148.00;4997663;28;20144;-63
2022/01/08 03:10:10;;;;;;;15.20;12.32;;;;;;;0.75;100.00;100146.38;5003475;28;20081;-63
2022/01/08 03:12:41;;;;;;;16.23;12.68;;;;;;;0.84;100.00;100150.47;5006318;28;20173;-64
2022/01/08 03:15:19;;;;;;;14.98;11.75;;;;;;;0.76;100.00;100148.91;5002329;28;20129;-64
2022/01/08 03:17:47;;;;;;;16.40;12.02;;;;;;;0.75;100.00;100148.97;5005329;28;20050;-63
2022/01/08 03:20:15;;;;;;;17.00;12.40;;;;;;;0.81;100.00;100155.72;5006820;28;20446;-63
2022/01/08 03:22:45;;;;;;;17.38;11.98;;;;;;;0.80;100.00;100149.69;5009227;28;20054;-63
2022/01/08 03:25:14;;;;;;;16.98;12.10;;;;;;;0.78;100.00;100151.47;4998732;28;20084;-62
2022/01/08 03:27:41;;;;;;;17.23;12.07;;;;;;;0.82;100.00;100149.66;5008051;28;20050;-62
2022/01/08 03:30:11;;;;;;;15.23;11.80;;;;;;;0.90;100.00;100152.88;5003715;28;20062;-64
2022/01/08 03:32:39;;;;;;;14.57;11.25;;;;;;;0.81;100.00;100140.16;5010127;28;20050;-64
2022/01/08 03:35:06;;;;;;;18.00;12.05;;;;;;;0.80;100.00;100141.06;5003569;28;20058;-63
2022/01/08 03:37:34;;;;;;;17.85;12.45;;;;;;;0.82;100.00;100137.56;5009161;28;20050;-62
2022/01/08 03:40:02;;;;;;;17.55;12.27;;;;;;;0.85;100.00;100140.03;5006796;28;20041;-64
2022/01/08 03:42:29;;;;;;;14.48;11.35;;;;;;;0.78;100.00;100128.16;5009375;28;20397;-63
2022/01/08 03:44:56;;;;;;;15.68;11.77;;;;;;;0.89;100.00;100131.28;5004490;28;20363;-63
2022/01/08 03:47:42;;;;;;;15.07;11.60;;;;;;;0.88;100.00;100131.34;5002045;28;20058;-63
2022/01/08 03:50:09;;;;;;;19.35;12.55;;;;;;;0.79;100.00;100135.03;5005888;28;20048;-63
2022/01/08 03:52:36;;;;;;;14.63;10.88;;;;;;;0.87;100.00;100140.03;5002819;28;20532;-63
2022/01/08 03:55:03;;;;;;;19.38;11.90;;;;;;;0.91;100.00;100136.47;5003563;28;20062;-64
2022/01/08 03:57:31;;;;;;;14.85;11.75;;;;;;;0.87;100.00;100145.19;5010659;28;20058;-65
2022/01/08 03:59:58;;;;;;;14.55;11.40;;;;;;;0.84;100.00;100138.34;5004530;28;20201;-64
2022/01/08 04:02:25;;;;;;;16.42;11.88;;;;;;;0.83;100.00;100134.06;5008864;28;20467;-64
2022/01/08 04:04:52;;;;;;;17.58;13.68;;;;;;;0.67;100.00;100130.16;5005419;28;20053;-63
2022/01/08 04:07:19;;;;;;;16.20;11.95;;;;;;;0.64;100.00;100128.53;5009269;28;20061;-64
2022/01/08 04:09:47;;;;;;;19.25;12.93;;;;;;;0.62;100.00;100134.63;5002343;28;20376;-64
2022/01/08 04:12:19;;;;;;;16.52;12.13;;;;;;;0.71;100.00;100137.81;5010943;28;20060;-64
2022/01/08 04:15:04;;;;;;;16.10;12.27;;;;;;;0.67;100.00;100135.34;5003882;28;20130;-64
2022/01/08 04:17:31;;;;;;;17.95;12.48;;;;;;;0.75;100.00;100130.81;5019794;28;20050;-62
2022/01/08 04:19:58;;;;;;;15.88;11.13;;;;;;;0.76;100.00;100137.69;5006755;28;20053;-63
2022/01/08 04:22:26;;;;;;;14.23;11.80;;;;;;;0.80;100.00;100141.06;5008084;28;20053;-64
2022/01/08 04:24:55;;;;;;;18.50;12.15;;;;;;;0.73;100.00;100138.66;5002944;28;20061;-64
2022/01/08 04:27:22;;;;;;;17.30;11.98;;;;;;;0.77;100.00;100139.41;5005483;28;20052;-62
2022/01/08 04:29:49;;;;;;;14.05;11.13;;;;;;;0.79;100.00;100145.41;5001687;28;20134;-63
2022/01/08 04:32:16;;;;;;;15.07;11.85;;;;;;;0.84;100.00;100147.88;5008605;28;20410;-64
2022/01/08 04:34:43;;;;;;;16.45;11.55;;;;;;;0.76;100.00;100143.72;5004091;28;20070;-64
2022/01/08 04:37:10;;;;;;;14.27;11.05;;;;;;;0.75;100.00;100144.63;5009990;28;20052;-64
2022/01/08 04:39:37;;;;;;;19.02;11.23;;;;;;;0.82;100.00;100144.47;4997846;28;20058;-64
2022/01/08 04:42:04;;;;;;;16.95;11.63;;;;;;;0.84;100.00;100148.72;5008592;28;20057;-64
2022/01/08 04:44:32;;;;;;;13.73;10.95;;;;;;;0.84;100.00;100148.72;5004929;28;20081;-63
2022/01/08 04:46:59;;;;;;;16.30;11.43;;;;;;;0.86;100.00;100146.94;5006553;28;20064;-63
2022/01/08 04:49:26;;;;;;;17.55;12.50;;;;;;;0.87;100.00;100151.22;5006309;28;20146;-64
2022/01/08 04:51:54;;;;;;;15.75;12.02;;;;;;;0.87;100.00;100152.97;5005868;28;20133;-63
2022/01/08 04:54:21;;;;;;;13.32;10.18;;;;;;;1.00;100.00;100156.94;4998693;28;20046;-64
2022/01/08 04:56:48;;;;;;;17.98;12.85;;;;;;;0.92;100.00;100164.06;5003995;28;20133;-64
2022/01/08 04:59:16;;;;;;;18.15;12.93;;;;;;;0.88;100.00;100154.66;5001713;28;20533;-64
2022/01/08 05:01:43;;;;;;;16.75;12.10;;;;;;;0.85;100.00;100154.75;5007623;28;20054;-63
2022/01/08 05:04:10;;;;;;;14.98;12.07;;;;;;;0.86;100.00;100157.31;5006721;28;20045;-63
2022/01/08 05:06:42;;;;;;;16.70;11.88;;;;;;;0.95;100.00;100166.59;5009740;28;20046;-64
2022/01/08 05:09:09;;;;;;;16.60;12.52;;;;;;;0.87;100.00;100165.94;5004111;28;20058;-63
2022/01/08 05:11:36;;;;;;;16.48;11.95;;;;;;;0.89;100.00;100161.53;5002476;28;20053;-62
2022/01/08 05:14:04;;;;;;;17.20;11.50;;;;;;;0.91;100.00;100170.16;5002700;28;20176;-63
2022/01/08 05:16:31;;;;;;;16.40;12.45;;;;;;;0.88;100.00;100167.63;5006821;28;20128;-64
2022/01/08 05:19:00;;;;;;;17.85;12.32;;;;;;;0.94;100.00;100173.47;5005882;28;20052;-64
2022/01/08 05:21:30;;;;;;;16.17;11.43;;;;;;;0.88;100.00;100167.63;5004742;28;20061;-64
2022/01/08 05:23:58;;;;;;;18.92;12.50;;;;;;;0.80;100.00;100165.22;5002767;28;20050;-64
2022/01/08 05:26:26;;;;;;;17.30;12.27;;;;;;;0.80;100.00;100165.22;5007897;28;20164;-64
2022/01/08 05:28:53;;;;;;;16.42;12.45;;;;;;;0.92;100.00;100158.88;5003494;28;20054;-64
2022/01/08 05:31:22;;;;;;;18.65;11.88;;;;;;;0.90;100.00;100161.53;5005003;28;20056;-65
2022/01/08 05:33:51;;;;;;;14.52;11.18;;;;;;;0.82;100.00;100166.06;5006564;28;20052;-64
2022/01/08 05:36:18;;;;;;;16.40;12.27;;;;;;;0.80;100.00;100162.63;5002280;28;20056;-64
2022/01/08 05:38:45;;;;;;;17.52;12.10;;;;;;;0.80;100.00;100156.59;5007493;28;20503;-63
2022/01/08 05:41:13;;;;;;;17.30;12.98;;;;;;;0.77;100.00;100154.97;5005909;28;20056;-65
2022/01/08 05:43:40;;;;;;;17.50;12.35;;;;;;;0.76;100.00;100161.88;5007887;28;20192;-64
2022/01/08 05:46:07;;;;;;;17.00;12.65;;;;;;;0.75;100.00;100161.91;5002804;28;20049;-64
2022/01/08 05:48:35;;;;;;;15.68;12.30;;;;;;;0.72;100.00;100169.75;5006606;28;20385;-64
2022/01/08 05:51:02;;;;;;;16.15;12.75;;;;;;;0.80;100.00;100174.75;5005109;28;20050;-64
2022/01/08 05:53:30;;;;;;;17.80;12.60;;;;;;;0.77;100.00;100175.69;5007257;28;20062;-62
2022/01/08 05:55:57;;;;;;;15.93;12.50;;;;;;;0.81;100.00;100181.63;5006118;28;20344;-65
2022/01/08 05:58:24;;;;;;;15.90;11.80;;;;;;;0.89;100.00;100180.53;5006866;28;20137;-64
2022/01/08 06:00:51;;;;;;;18.67;12.77;;;;;;;0.82;100.00;100181.59;5001723;28;20138;-63
2022/01/08 06:03:19;;;;;;;19.65;11.95;;;;;;;0.76;100.00;100182.59;5003605;28;20061;-62
2022/01/08 06:05:47;;;;;;;18.63;13.00;;;;;;;0.74;100.00;100180.94;5003236;28;20054;-63
2022/01/08 06:08:14;;;;;;;16.52;12.13;;;;;;;0.74;100.00;100180.94;5003274;28;20137;-64
2022/01/08 06:10:41;;;;;;;17.52;12.85;;;;;;;0.84;100.00;100190.19;5000452;28;20332;-64
2022/01/08 06:13:08;;;;;;;17.13;11.98;;;;;;;0.83;100.00;100174.69;5002625;28;20042;-64
2022/01/08 06:15:35;;;;;;;16.30;12.15;;;;;;;0.81;100.00;100179.03;4997989;28;20037;-64
2022/01/08 06:18:02;;;;;;;18.30;12.45;;;;;;;0.89;100.00;100183.13;5003142;28;20621;-64
2022/01/08 06:20:30;;;;;;;16.85;12.07;;;;;;;0.86;100.00;100183.22;5001968;28;20432;-64
2022/01/08 06:22:59;;;;;;;19.80;13.30;;;;;;;0.89;100.00;100180.53;5006302;28;20083;-64
2022/01/08 06:25:26;;;;;;;19.27;13.25;;;;;;;0.86;100.00;100185.81;5002366;28;20148;-64
2022/01/08 06:27:54;;;;;;;17.63;12.45;;;;;;;0.86;100.00;100190.16;5008031;28;20053;-64
2022/01/08 06:30:21;;;;;;;20.00;12.90;;;;;;;0.87;100.00;100184.91;5001139;28;20513;-64
2022/01/08 06:32:48;;;;;;;17.25;13.02;;;;;;;0.92;100.00;100187.38;5004889;28;20733;-64
2022/01/08 06:35:16;;;;;;;16.85;11.63;;;;;;;0.94;100.00;100196.81;5002056;28;20053;-64
2022/01/08 06:37:43;;;;;;;21.50;13.30;;;;;;;0.98;100.00;100195.00;5006509;28;20141;-65
2022/01/08 06:40:11;;;;;;;22.73;12.10;;;;;;;0.99;100.00;100194.97;5002408;28;20053;-64
2022/01/08 06:42:38;;;;;;;18.17;11.93;;;;;;;1.02;100.00;100194.03;5006503;28;20218;-64
2022/01/08 06:45:05;;;;;;;19.23;12.25;;;;;;;1.04;100.00;100193.97;4998508;28;20085;-64
2022/01/08 06:47:33;;;;;;;18.20;12.48;;;;;;;1.05;100.00;100198.28;5006255;28;20133;-62
2022/01/08 06:50:00;;;;;;;17.20;12.65;;;;;;;1.12;100.00;100198.06;5001634;28;20057;-63
2022/01/08 06:52:28;;;;;;;19.23;12.43;;;;;;;1.13;100.00;100201.53;5007182;28;20057;-62
2022/01/08 06:54:55;;;;;;;16.20;11.95;;;;;;;1.15;100.00;100207.50;5005951;28;20054;-63
2022/01/08 06:57:23;;;;;;;21.92;12.10;;;;;;;1.20;100.00;100214.25;5004806;28;20060;-62
2022/01/08 06:59:50;;;;;;;15.38;11.27;;;;;;;1.17;100.00;100218.69;5007647;28;20149;-63
2022/01/08 07:02:17;;;;;;;16.58;11.45;;;;;;;1.13;100.00;100211.91;5010604;28;20046;-63
2022/01/08 07:04:44;;;;;;;19.15;12.75;;;;;;;1.11;100.00;100219.69;5007089;28;20056;-63
2022/01/08 07:07:11;;;;;;;17.45;12.32;;;;;;;1.15;100.00;100218.72;5005529;28;20057;-63
2022/01/08 07:09:38;;;;;;;19.52;12.95;;;;;;;1.12;100.00;100225.72;5005942;28;20067;-63
2022/01/08 07:12:06;;;;;;;16.92;13.48;;;;;;;1.17;100.00;100218.69;5007051;28;20046;-63
2022/01/08 07:14:33;;;;;;;15.88;12.23;;;;;;;1.21;100.00;100226.34;5006167;28;20125;-64
2022/01/08 07:17:00;;;;;;;22.00;12.00;;;;;;;1.21;100.00;100222.88;5009674;28;20052;-63
2022/01/08 07:19:28;;;;;;;20.60;11.75;;;;;;;1.22;100.00;100229.81;5006490;28;20060;-63
2022/01/08 07:21:55;;;;;;;15.23;12.10;;;;;;;1.24;100.00;100225.41;5006733;28;20038;-64
2022/01/08 07:24:22;;;;;;;18.30;11.93;;;;;;;1.21;100.00;100223.75;5008669;28;20085;-63
2022/01/08 07:26:49;;;;;;;15.63;11.18;;;;;;;1.19;100.00;100227.28;5009745;28;20057;-64
2022/01/08 07:29:16;;;;;;;18.15;12.05;;;;;;;1.13;100.00;100227.47;5002320;28;20054;-63
2022/01/08 07:31:44;;;;;;;16.50;11.75;;;;;;;1.14;100.00;100219.63;5006223;28;20090;-64
2022/01/08 07:34:11;;;;;;;19.02;12.00;;;;;;;1.14;100.00;100221.38;5002824;28;20050;-62
2022/01/08 07:36:38;;;;;;;17.20;11.18;;;;;;;1.17;100.00;100221.28;5008885;28;20160;-63
2022/01/08 07:39:05;;;;;;;17.77;11.27;;;;;;;1.16;100.00;100220.41;5003039;28;20120;-63
2022/01/08 07:41:32;;;;;;;17.85;11.27;;;;;;;1.17;100.00;100224.75;5009068;28;20056;-63
2022/01/08 07:44:00;;;;;;;16.35;11.68;;;;;;;1.17;100.00;100224.75;5005251;28;20434;-63
2022/01/08 07:46:27;;;;;;;15.50;10.73;;;;;;;1.21;100.00;100228.06;5005419;28;20070;-64
2022/01/08 07:48:54;;;;;;;15.40;11.15;;;;;;;1.19;100.00;100228.13;5003056;28;20050;-64
2022/01/08 07:51:21;;;;;;;18.27;12.65;;;;;;;1.19;100.00;100228.13;5007700;28;20454;-63
2022/01/08 07:53:48;;;;;;;16.20;10.57;;;;;;;1.15;100.00;100223.91;5007496;28;20068;-63
2022/01/08 07:56:15;;;;;;;18.20;12.30;;;;;;;1.17;100.00;100227.34;5006664;28;20415;-63
2022/01/08 07:58:42;;;;;;;16.85;10.73;;;;;;;1.19;100.00;100233.31;5003489;28;20089;-62
2022/01/08 08:01:10;;;;;;;14.63;11.18;;;;;;;1.22;100.00;100235.00;5005587;28;20240;-64
2022/01/08 08:03:37;;;;;;;17.10;11.70;;;;;;;1.26;100.00;100236.56;5008527;28;20064;-62
2022/01/08 08:06:09;;;;;;;13.27;10.50;;;;;;;1.19;100.00;100240.25;5008730;28;20054;-62
2022/01/08 08:08:36;;;;;;;16.05;11.77;;;;;;;1.23;100.00;100240.13;5006842;28;20149;-62
2022/01/08 08:11:03;;;;;;;19.50;11.98;;;;;;;1.28;100.00;100242.59;5003040;28;20498;-63
2022/01/08 08:13:33;;;;;;;20.42;12.23;;;;;;;1.31;100.00;100237.34;5007703;28;20181;-63
2022/01/08 08:16:00;;;;;;;20.40;12.43;;;;;;;1.39;100.00;100242.28;5001208;28;20054;-63
2022/01/08 08:18:28;;;;;;;16.40;12.38;;;;;;;1.42;100.00;100237.88;5007985;28;20173;-64
2022/01/08 08:20:55;;;;;;;18.83;13.25;;;;;;;1.45;100.00;100247.31;5007315;28;20204;-63
2022/01/08 08:23:22;;;;;;;20.77;13.57;;;;;;;1.49;100.00;100242.00;5004340;28;20054;-62
2022/01/08 08:25:50;;;;;;;18.95;13.32;;;;;;;1.48;100.00;100244.63;5006887;28;20077;-64
2022/01/08 08:28:17;;;;;;;18.00;13.57;;;;;;;1.43;100.00;100241.31;5002551;28;20675;-63
2022/01/08 08:30:44;;;;;;;17.48;12.32;;;;;;;1.33;100.00;100248.50;5007391;28;20050;-64
2022/01/08 08:33:11;;;;;;;19.60;13.90;;;;;;;1.36;100.00;100242.38;5003125;28;20046;-63
2022/01/08 08:35:38;;;;;;;17.00;12.55;;;;;;;1.30;100.00;100240.78;5003810;28;20132;-64
2022/01/08 08:38:05;;;;;;;17.73;13.13;;;;;;;1.35;100.00;100235.47;5002820;28;20050;-64
2022/01/08 08:40:32;;;;;;;19.48;13.73;;;;;;;1.42;100.00;100234.44;5004536;28;20062;-64
2022/01/08 08:43:00;;;;;;;21.02;13.70;;;;;;;1.41;100.00;100233.59;5010036;28;20049;-64
2022/01/08 08:45:27;;;;;;;21.05;13.40;;;;;;;1.40;100.00;100221.50;5007000;28;20066;-64
2022/01/08 08:47:56;;;;;;;17.77;12.65;;;;;;;1.45;100.00;100221.38;5010084;28;20465;-64
2022/01/08 08:50:26;;;;;;;17.95;12.73;;;;;;;1.37;100.00;100215.56;5000458;28;20481;-63
2022/01/08 08:52:55;;;;;;;17.38;11.73;;;;;;;1.38;100.00;100212.91;5006519;28;20561;-64
2022/01/08 08:55:22;;;;;;;20.45;12.85;;;;;;;1.51;100.00;100218.59;5007137;28;20046;-63
2022/01/08 08:57:49;;;;;;;15.73;12.60;;;;;;;1.60;100.00;100215.75;4998675;28;20569;-63
2022/01/08 09:00:16;;;;;;;17.02;12.02;;;;;;;1.61;100.00;100207.06;5017465;22;20058;-62
2022/01/08 09:02:43;;;;;;;19.42;12.80;;;;;;;1.60;100.00;100209.72;5014465;28;20337;-61
2022/01/08 09:05:11;;;;;;;25.08;13.43;;;;;;;1.59;100.00;100210.63;5003060;28;20073;-60
2022/01/08 09:07:39;;;;;;;18.67;13.00;;;;;;;1.54;100.00;100210.75;5010625;28;20108;-61
2022/01/08 09:10:09;;;;;;;20.27;12.52;;;;;;;1.53;100.00;100211.63;4992081;28;20471;-60
2022/01/08 09:12:40;;;;;;;19.17;13.50;;;;;;;1.49;100.00;100213.47;4995542;28;20528;-61
2022/01/08 09:15:08;;;;;;;17.73;13.15;;;;;;;1.48;100.00;100203.13;4985113;28;20056;-61
2022/01/08 09:17:39;;;;;;;20.75;14.05;;;;;;;1.57;100.00;100213.22;4969487;28;20253;-61
2022/01/08 09:20:08;;;;;;;22.52;12.55;;;;;;;1.69;100.00;100217.22;4979532;28;20101;-61
2022/01/08 09:22:35;;;;;;;16.60;12.23;;;;;;;1.68;100.00;100220.72;4990972;28;20133;-60
2022/01/08 09:25:04;;;;;;;22.23;13.50;;;;;;;1.61;100.00;100226.97;4983489;28;20050;-61
2022/01/08 09:27:31;;;;;;;17.63;12.68;;;;;;;1.50;100.00;100227.28;4994863;28;20054;-61
2022/01/08 09:29:58;;;;;;;17.40;13.02;;;;;;;1.66;100.00;100228.53;4983837;28;20589;-60
2022/01/08 09:32:26;;;;;;;18.27;12.45;;;;;;;1.58;100.00;100233.13;4995790;28;20066;-60
2022/01/08 09:34:53;;;;;;;19.65;12.80;;;;;;;1.48;100.00;100236.84;4989860;28;20765;-62
2022/01/08 09:37:20;;;;;;;18.15;13.93;;;;;;;1.46;100.00;100236.06;5002551;28;20100;-61
2022/01/08 09:39:47;;;;;;;17.73;13.65;;;;;;;1.54;100.00;100233.25;4986256;28;20055;-60
2022/01/08 09:42:14;;;;;;;16.45;13.13;;;;;;;1.56;100.00;100240.09;5003477;28;20129;-60
2022/01/08 09:44:45;;;;;;;16.98;12.77;;;;;;;1.56;100.00;100237.47;4992603;28;20168;-60
2022/01/08 09:47:13;;;;;;;19.02;12.73;;;;;;;1.69;100.00;100236.25;4998399;28;20074;-61
2022/01/08 09:49:40;;;;;;;20.98;13.38;;;;;;;1.74;100.00;100226.59;4993096;28;20073;-60
2022/01/08 09:52:08;;;;;;;20.00;13.15;;;;;;;2.03;100.00;100222.28;4968871;28;20046;-61
2022/01/08 09:54:35;;;;;;;17.10;12.57;;;;;;;2.39;100.00;100225.50;4995305;28;20058;-60
2022/01/08 09:57:03;;;;;;;17.27;12.23;;;;;;;2.39;100.00;100230.69;4995796;28;20137;-61
2022/01/08 09:59:30;;;;;;;15.13;12.15;;;;;;;2.31;100.00;100226.63;4971354;28;20462;-61
2022/01/08 10:01:59;;;;;;;16.35;11.55;;;;;;;2.23;100.00;100219.91;4997167;28;20129;-61
2022/01/08 10:04:35;;;;;;;13.98;11.15;;;;;;;2.15;100.00;100218.44;4989382;28;20049;-60
2022/01/08 10:07:18;;;;;;;16.08;12.13;;;;;;;2.06;100.00;100222.19;4973342;28;20157;-61
2022/01/08 10:10:04;;;;;;;15.10;11.18;;;;;;;1.91;100.00;100220.91;4991708;28;20471;-60
2022/01/08 10:12:54;;;;;;;16.80;11.75;;;;;;;1.85;100.00;100228.88;4985568;28;20051;-60
2022/01/08 10:18:27;;;;;;;20.50;12.63;;;;;;;1.77;100.00;100210.09;4988639;28;20082;-61
2022/01/08 10:20:55;;;;;;;15.57;12.70;;;;;;;1.86;100.00;100204.63;4992690;28;20128;-61
2022/01/08 10:23:23;;;;;;;19.48;12.90;;;;;;;1.79;100.00;100200.50;4984318;28;20400;-60
2022/01/08 10:26:08;;;;;;;18.15;12.02;;;;;;;1.85;100.00;100202.09;4985295;28;20110;-61
2022/01/08 10:28:45;;;;;;;17.17;12.73;;;;;;;1.97;100.00;100202.53;4988640;28;20510;-61
2022/01/08 10:31:26;;;;;;;17.10;12.50;;;;;;;2.03;100.00;100191.97;4980161;28;20061;-60
2022/01/08 10:34:04;;;;;;;18.67;12.73;;;;;;;2.06;100.00;100200.56;4987356;28;20136;-61
2022/01/08 10:36:33;;;;;;;19.45;13.38;;;;;;;2.15;100.00;100202.88;4991105;28;20050;-61
2022/01/08 10:39:04;;;;;;;19.85;12.60;;;;;;;2.13;100.00;100189.94;4990765;28;20046;-60
2022/01/08 10:41:31;;;;;;;16.08;12.25;;;;;;;2.26;100.00;100190.41;4994913;28;20064;-60
2022/01/08 10:44:27;;;;;;;16.50;11.70;;;;;;;2.47;100.00;100181.91;4992926;28;20052;-61
2022/01/08 10:46:55;;;;;;;16.05;11.18;;;;;;;2.84;100.00;100185.03;4995253;28;20046;-61
2022/01/08 10:49:37;;;;;;;14.65;11.40;;;;;;;3.08;100.00;100185.94;4971596;28;20407;-61
2022/01/08 10:52:09;;;;;;;16.00;11.18;;;;;;;3.25;98.94;100188.81;4986218;28;20137;-60
2022/01/08 10:54:41;;;;;;;16.38;11.68;;;;;;;3.45;98.23;100193.28;4991695;28;20618;-60
2022/01/08 10:57:12;;;;;;;13.07;10.27;;;;;;;3.69;95.68;100192.38;4994944;28;20132;-59
2022/01/08 10:59:40;;;;;;;20.15;11.18;;;;;;;3.93;94.85;100180.19;4974034;28;20513;-60
2022/01/08 11:02:09;;;;;;;18.40;11.38;;;;;;;3.96;93.23;100172.25;4989512;28;20127;-61
2022/01/08 11:04:52;;;;;;;15.38;10.05;;;;;;;4.61;90.48;100174.88;4977121;28;20060;-60
2022/01/08 11:07:21;;;;;;;14.23;9.52;;;;;;;4.55;88.58;100176.81;4970128;28;20058;-61
2022/01/08 11:09:50;;;;;;;17.67;11.20;;;;;;;4.86;89.32;100182.50;4988185;28;20073;-60
2022/01/08 11:12:23;;;;;;;15.02;9.05;;;;;;;4.89;85.96;100190.19;4991312;28;20134;-60
2022/01/08 11:17:29;;;;;;;11.90;8.80;;;;;;;5.00;83.43;100188.84;4985241;28;20491;-61
2022/01/08 11:19:59;;;;;;;12.63;8.98;;;;;;;4.80;84.51;100188.81;4986202;28;20573;-61
2022/01/08 11:22:29;;;;;;;14.35;9.40;;;;;;;5.12;83.89;100186.59;4987496;28;20065;-61
2022/01/08 11:25:06;;;;;;;11.80;8.40;;;;;;;5.01;83.93;100184.47;4973282;28;20141;-60
2022/01/08 11:27:52;;;;;;;13.85;9.30;;;;;;;4.78;84.95;100195.88;4980958;28;20137;-61
2022/01/08 11:30:22;;;;;;;10.15;7.68;;;;;;;4.15;84.65;100194.97;4988977;28;20077;-57
2022/01/08 11:32:50;;;;;;;13.70;9.45;;;;;;;3.76;87.68;100200.81;4984442;28;20526;-59
2022/01/08 11:35:36;;;;;;;14.60;9.63;;;;;;;3.29;89.83;100203.41;4993604;28;20092;-61